sensor_id;sensor_type;location;lat;lon;timestamp;temperature;humidity
10419;DHT22;5256;48.728;9.140;2022-12-07T00:00:38;2.70;99.90
10419;DHT22;5256;48.728;9.140;2022-12-07T00:03:04;2.80;99.90
10419;DHT22;5256;48.728;9.140;2022-12-07T00:05:29;2.80;99.90
10419;DHT22;5256;48.728;9.140;2022-12-07T00:07:55;2.80;99.90
10419;DHT22;5256;48.728;9.140;2022-12-07T00:10:20;2.80;99.90
10419;DHT22;5256;48.728;9.140;2022-12-07T00:12:46;2.90;99.90
10419;DHT22;5256;48.728;9.140;2022-12-07T00:15:11;2.90;99.90
10419;DHT22;5256;48.728;9.140;2022-12-07T00:17:37;2.90;99.90
10419;DHT22;5256;48.728;9.140;2022-12-07T00:20:03;2.80;99.90
10419;DHT22;5256;48.728;9.140;2022-12-07T00:22:29;2.90;99.90
10419;DHT22;5256;48.728;9.140;2022-12-07T00:24:54;2.70;99.90
10419;DHT22;5256;48.728;9.140;2022-12-07T00:27:20;2.70;99.90
10419;DHT22;5256;48.728;9.140;2022-12-07T00:29:45;2.80;99.90
10419;DHT22;5256;48.728;9.140;2022-12-07T00:32:11;2.70;99.90
10419;DHT22;5256;48.728;9.140;2022-12-07T00:34:36;2.70;99.90
10419;DHT22;5256;48.728;9.140;2022-12-07T00:37:02;2.70;99.90
10419;DHT22;5256;48.728;9.140;2022-12-07T00:39:28;2.70;99.90
10419;DHT22;5256;48.728;9.140;2022-12-07T00:41:53;2.70;99.90
10419;DHT22;5256;48.728;9.140;2022-12-07T00:44:19;2.70;99.90
10419;DHT22;5256;48.728;9.140;2022-12-07T00:46:44;2.60;99.90
10419;DHT22;5256;48.728;9.140;2022-12-07T00:49:10;2.60;99.90
10419;DHT22;5256;48.728;9.140;2022-12-07T00:51:36;2.70;99.90
10419;DHT22;5256;48.728;9.140;2022-12-07T00:54:02;2.60;99.90
10419;DHT22;5256;48.728;9.140;2022-12-07T00:56:28;2.60;99.90
10419;DHT22;5256;48.728;9.140;2022-12-07T00:58:59;2.60;99.90
10419;DHT22;5256;48.728;9.140;2022-12-07T01:01:27;2.60;99.90
10419;DHT22;5256;48.728;9.140;2022-12-07T01:03:53;2.60;99.90
10419;DHT22;5256;48.728;9.140;2022-12-07T01:06:19;2.60;99.90
10419;DHT22;5256;48.728;9.140;2022-12-07T01:08:46;2.60;99.90
10419;DHT22;5256;48.728;9.140;2022-12-07T01:11:15;2.70;99.90
10419;DHT22;5256;48.728;9.140;2022-12-07T01:13:41;2.70;99.90
10419;DHT22;5256;48.728;9.140;2022-12-07T01:16:07;2.70;99.90
10419;DHT22;5256;48.728;9.140;2022-12-07T01:18:35;2.60;99.90
10419;DHT22;5256;48.728;9.140;2022-12-07T01:21:02;2.60;99.90
10419;DHT22;5256;48.728;9.140;2022-12-07T01:23:29;2.60;99.90
10419;DHT22;5256;48.728;9.140;2022-12-07T01:25:58;2.50;99.90
10419;DHT22;5256;48.728;9.140;2022-12-07T01:28:25;2.40;99.90
10419;DHT22;5256;48.728;9.140;2022-12-07T01:31:02;2.50;99.90
10419;DHT22;5256;48.728;9.140;2022-12-07T01:33:30;2.50;99.90
10419;DHT22;5256;48.728;9.140;2022-12-07T01:36:23;2.50;99.90
10419;DHT22;5256;48.728;9.140;2022-12-07T01:38:51;2.40;99.90
10419;DHT22;5256;48.728;9.140;2022-12-07T01:41:19;2.30;99.90
10419;DHT22;5256;48.728;9.140;2022-12-07T01:46:36;2.30;99.90
10419;DHT22;5256;48.728;9.140;2022-12-07T01:49:04;2.20;99.90
10419;DHT22;5256;48.728;9.140;2022-12-07T01:51:31;2.20;99.90
10419;DHT22;5256;48.728;9.140;2022-12-07T01:53:57;2.20;99.90
10419;DHT22;5256;48.728;9.140;2022-12-07T01:56:25;2.20;99.90
10419;DHT22;5256;48.728;9.140;2022-12-07T01:58:54;2.20;99.90
10419;DHT22;5256;48.728;9.140;2022-12-07T02:01:21;2.20;99.90
10419;DHT22;5256;48.728;9.140;2022-12-07T02:03:46;2.30;99.90
10419;DHT22;5256;48.728;9.140;2022-12-07T02:06:16;2.20;99.90
10419;DHT22;5256;48.728;9.140;2022-12-07T02:08:44;2.30;99.90
10419;DHT22;5256;48.728;9.140;2022-12-07T02:11:10;2.20;99.90
10419;DHT22;5256;48.728;9.140;2022-12-07T02:13:38;2.30;99.90
10419;DHT22;5256;48.728;9.140;2022-12-07T02:21:51;2.30;99.90
10419;DHT22;5256;48.728;9.140;2022-12-07T02:24:28;2.20;99.90
10419;DHT22;5256;48.728;9.140;2022-12-07T02:32:39;2.10;99.90
10419;DHT22;5256;48.728;9.140;2022-12-07T02:43:28;2.20;99.90
10419;DHT22;5256;48.728;9.140;2022-12-07T02:45:55;2.30;99.90
10419;DHT22;5256;48.728;9.140;2022-12-07T02:48:23;2.20;99.90
10419;DHT22;5256;48.728;9.140;2022-12-07T02:50:51;2.10;99.90
10419;DHT22;5256;48.728;9.140;2022-12-07T02:53:39;2.20;99.90
10419;DHT22;5256;48.728;9.140;2022-12-07T02:56:16;2.10;99.90
10419;DHT22;5256;48.728;9.140;2022-12-07T03:04:45;2.20;99.90
10419;DHT22;5256;48.728;9.140;2022-12-07T03:10:28;2.20;99.90
10419;DHT22;5256;48.728;9.140;2022-12-07T03:13:02;2.30;99.90
10419;DHT22;5256;48.728;9.140;2022-12-07T03:15:39;2.20;99.90
10419;DHT22;5256;48.728;9.140;2022-12-07T03:18:07;2.30;99.90
10419;DHT22;5256;48.728;9.140;2022-12-07T03:20:35;2.30;99.90
10419;DHT22;5256;48.728;9.140;2022-12-07T03:23:04;2.30;99.90
10419;DHT22;5256;48.728;9.140;2022-12-07T03:25:31;2.30;99.90
10419;DHT22;5256;48.728;9.140;2022-12-07T03:28:02;2.30;99.90
10419;DHT22;5256;48.728;9.140;2022-12-07T03:33:24;2.30;99.90
10419;DHT22;5256;48.728;9.140;2022-12-07T03:38:28;2.30;99.90
10419;DHT22;5256;48.728;9.140;2022-12-07T03:41:01;2.30;99.90
10419;DHT22;5256;48.728;9.140;2022-12-07T03:43:30;2.30;99.90
10419;DHT22;5256;48.728;9.140;2022-12-07T03:48:54;2.30;99.90
10419;DHT22;5256;48.728;9.140;2022-12-07T03:51:46;2.30;99.90
10419;DHT22;5256;48.728;9.140;2022-12-07T03:54:19;2.30;99.90
10419;DHT22;5256;48.728;9.140;2022-12-07T03:56:46;2.30;99.90
10419;DHT22;5256;48.728;9.140;2022-12-07T03:59:14;2.20;99.90
10419;DHT22;5256;48.728;9.140;2022-12-07T04:01:44;2.20;99.90
10419;DHT22;5256;48.728;9.140;2022-12-07T04:04:16;2.20;99.90
10419;DHT22;5256;48.728;9.140;2022-12-07T04:06:42;2.20;99.90
10419;DHT22;5256;48.728;9.140;2022-12-07T04:09:08;2.20;99.90
10419;DHT22;5256;48.728;9.140;2022-12-07T04:11:33;2.20;99.90
10419;DHT22;5256;48.728;9.140;2022-12-07T04:13:59;2.20;99.90
10419;DHT22;5256;48.728;9.140;2022-12-07T04:16:43;2.20;99.90
10419;DHT22;5256;48.728;9.140;2022-12-07T04:19:08;2.20;99.90
10419;DHT22;5256;48.728;9.140;2022-12-07T04:21:34;2.20;99.90
10419;DHT22;5256;48.728;9.140;2022-12-07T04:23:59;2.20;99.90
10419;DHT22;5256;48.728;9.140;2022-12-07T04:26:25;2.20;99.90
10419;DHT22;5256;48.728;9.140;2022-12-07T04:28:50;2.20;99.90
10419;DHT22;5256;48.728;9.140;2022-12-07T04:31:16;2.20;99.90
10419;DHT22;5256;48.728;9.140;2022-12-07T04:33:41;2.20;99.90
10419;DHT22;5256;48.728;9.140;2022-12-07T04:36:07;2.20;99.90
10419;DHT22;5256;48.728;9.140;2022-12-07T04:38:32;2.20;99.90
10419;DHT22;5256;48.728;9.140;2022-12-07T04:40:58;2.20;99.90
10419;DHT22;5256;48.728;9.140;2022-12-07T04:43:29;2.20;99.90
10419;DHT22;5256;48.728;9.140;2022-12-07T04:45:54;2.20;99.90
10419;DHT22;5256;48.728;9.140;2022-12-07T04:48:20;2.20;99.90
10419;DHT22;5256;48.728;9.140;2022-12-07T04:50:48;2.20;99.90
10419;DHT22;5256;48.728;9.140;2022-12-07T04:53:15;2.20;99.90
10419;DHT22;5256;48.728;9.140;2022-12-07T04:55:40;2.10;99.90
10419;DHT22;5256;48.728;9.140;2022-12-07T04:58:06;2.10;99.90
10419;DHT22;5256;48.728;9.140;2022-12-07T05:00:31;2.10;99.90
10419;DHT22;5256;48.728;9.140;2022-12-07T05:02:57;2.10;99.90
10419;DHT22;5256;48.728;9.140;2022-12-07T05:05:22;2.10;99.90
10419;DHT22;5256;48.728;9.140;2022-12-07T05:07:48;2.10;99.90
10419;DHT22;5256;48.728;9.140;2022-12-07T05:10:13;2.00;99.90
10419;DHT22;5256;48.728;9.140;2022-12-07T05:12:39;2.00;99.90
10419;DHT22;5256;48.728;9.140;2022-12-07T05:15:05;2.00;99.90
10419;DHT22;5256;48.728;9.140;2022-12-07T05:17:30;2.00;99.90
10419;DHT22;5256;48.728;9.140;2022-12-07T05:19:56;2.00;99.90
10419;DHT22;5256;48.728;9.140;2022-12-07T05:22:21;2.00;99.90
10419;DHT22;5256;48.728;9.140;2022-12-07T05:24:47;2.10;99.90
10419;DHT22;5256;48.728;9.140;2022-12-07T05:27:12;2.00;99.90
10419;DHT22;5256;48.728;9.140;2022-12-07T05:29:38;2.00;99.90
10419;DHT22;5256;48.728;9.140;2022-12-07T05:32:04;2.00;99.90
10419;DHT22;5256;48.728;9.140;2022-12-07T05:34:29;1.90;99.90
10419;DHT22;5256;48.728;9.140;2022-12-07T05:36:55;1.90;99.90
10419;DHT22;5256;48.728;9.140;2022-12-07T05:39:20;1.80;99.90
10419;DHT22;5256;48.728;9.140;2022-12-07T05:41:46;1.70;99.90
10419;DHT22;5256;48.728;9.140;2022-12-07T05:44:30;1.60;99.90
10419;DHT22;5256;48.728;9.140;2022-12-07T05:46:55;1.50;99.90
10419;DHT22;5256;48.728;9.140;2022-12-07T05:49:21;1.30;99.90
10419;DHT22;5256;48.728;9.140;2022-12-07T05:51:46;1.20;99.90
10419;DHT22;5256;48.728;9.140;2022-12-07T05:54:12;1.10;99.90
10419;DHT22;5256;48.728;9.140;2022-12-07T05:56:37;1.00;99.90
10419;DHT22;5256;48.728;9.140;2022-12-07T05:59:03;0.90;99.90
10419;DHT22;5256;48.728;9.140;2022-12-07T06:01:48;0.90;99.90
10419;DHT22;5256;48.728;9.140;2022-12-07T06:04:13;1.00;99.90
10419;DHT22;5256;48.728;9.140;2022-12-07T06:06:39;1.00;99.90
10419;DHT22;5256;48.728;9.140;2022-12-07T06:09:05;0.90;99.90
10419;DHT22;5256;48.728;9.140;2022-12-07T06:11:31;0.90;99.90
10419;DHT22;5256;48.728;9.140;2022-12-07T06:14:15;1.00;99.90
10419;DHT22;5256;48.728;9.140;2022-12-07T06:16:41;1.00;99.90
10419;DHT22;5256;48.728;9.140;2022-12-07T06:19:07;1.00;99.90
10419;DHT22;5256;48.728;9.140;2022-12-07T06:21:32;1.10;99.90
10419;DHT22;5256;48.728;9.140;2022-12-07T06:23:58;1.10;99.90
10419;DHT22;5256;48.728;9.140;2022-12-07T06:26:23;1.00;99.90
10419;DHT22;5256;48.728;9.140;2022-12-07T06:28:49;1.00;99.90
10419;DHT22;5256;48.728;9.140;2022-12-07T06:31:15;1.20;99.90
10419;DHT22;5256;48.728;9.140;2022-12-07T06:33:41;1.20;99.90
10419;DHT22;5256;48.728;9.140;2022-12-07T06:36:07;1.20;99.90
10419;DHT22;5256;48.728;9.140;2022-12-07T06:38:33;1.10;99.90
10419;DHT22;5256;48.728;9.140;2022-12-07T06:40:58;1.10;99.90
10419;DHT22;5256;48.728;9.140;2022-12-07T06:43:24;1.10;99.90
10419;DHT22;5256;48.728;9.140;2022-12-07T06:45:49;1.40;99.90
10419;DHT22;5256;48.728;9.140;2022-12-07T06:48:16;1.50;99.90
10419;DHT22;5256;48.728;9.140;2022-12-07T06:50:44;1.60;99.90
10419;DHT22;5256;48.728;9.140;2022-12-07T06:53:10;1.50;99.90
10419;DHT22;5256;48.728;9.140;2022-12-07T06:55:35;1.60;99.90
10419;DHT22;5256;48.728;9.140;2022-12-07T06:58:01;1.60;99.90
10419;DHT22;5256;48.728;9.140;2022-12-07T07:00:28;1.60;99.90
10419;DHT22;5256;48.728;9.140;2022-12-07T07:02:53;1.50;99.90
10419;DHT22;5256;48.728;9.140;2022-12-07T07:05:19;1.60;99.90
10419;DHT22;5256;48.728;9.140;2022-12-07T07:07:48;1.50;99.90
10419;DHT22;5256;48.728;9.140;2022-12-07T07:10:14;1.40;99.90
10419;DHT22;5256;48.728;9.140;2022-12-07T07:12:39;1.40;99.90
10419;DHT22;5256;48.728;9.140;2022-12-07T07:15:05;1.40;99.90
10419;DHT22;5256;48.728;9.140;2022-12-07T07:17:31;1.40;99.90
10419;DHT22;5256;48.728;9.140;2022-12-07T07:19:56;1.30;99.90
10419;DHT22;5256;48.728;9.140;2022-12-07T07:22:22;1.10;99.90
10419;DHT22;5256;48.728;9.140;2022-12-07T07:24:47;1.10;99.90
10419;DHT22;5256;48.728;9.140;2022-12-07T07:27:13;1.20;99.90
10419;DHT22;5256;48.728;9.140;2022-12-07T07:29:38;1.30;99.90
10419;DHT22;5256;48.728;9.140;2022-12-07T07:32:04;1.20;99.90
10419;DHT22;5256;48.728;9.140;2022-12-07T07:34:30;1.20;99.90
10419;DHT22;5256;48.728;9.140;2022-12-07T07:36:55;1.30;99.90
10419;DHT22;5256;48.728;9.140;2022-12-07T07:39:21;1.30;99.90
10419;DHT22;5256;48.728;9.140;2022-12-07T07:41:46;1.30;99.90
10419;DHT22;5256;48.728;9.140;2022-12-07T07:44:12;1.30;99.90
10419;DHT22;5256;48.728;9.140;2022-12-07T07:46:38;1.30;99.90
10419;DHT22;5256;48.728;9.140;2022-12-07T07:49:03;1.30;99.90
10419;DHT22;5256;48.728;9.140;2022-12-07T07:51:29;1.30;99.90
10419;DHT22;5256;48.728;9.140;2022-12-07T07:53:54;1.40;99.90
10419;DHT22;5256;48.728;9.140;2022-12-07T07:56:20;1.50;99.90
10419;DHT22;5256;48.728;9.140;2022-12-07T07:58:45;1.50;99.90
10419;DHT22;5256;48.728;9.140;2022-12-07T08:01:11;1.60;99.90
10419;DHT22;5256;48.728;9.140;2022-12-07T08:03:39;1.70;99.90
10419;DHT22;5256;48.728;9.140;2022-12-07T08:06:04;1.80;99.90
10419;DHT22;5256;48.728;9.140;2022-12-07T08:08:31;1.90;99.90
10419;DHT22;5256;48.728;9.140;2022-12-07T08:10:56;2.00;99.90
10419;DHT22;5256;48.728;9.140;2022-12-07T08:13:25;2.20;99.90
10419;DHT22;5256;48.728;9.140;2022-12-07T08:15:51;2.20;99.90
10419;DHT22;5256;48.728;9.140;2022-12-07T08:18:17;2.10;99.90
10419;DHT22;5256;48.728;9.140;2022-12-07T08:20:42;2.00;99.90
10419;DHT22;5256;48.728;9.140;2022-12-07T08:23:09;1.90;99.90
10419;DHT22;5256;48.728;9.140;2022-12-07T08:25:35;2.00;99.90
10419;DHT22;5256;48.728;9.140;2022-12-07T08:28:01;2.00;99.90
10419;DHT22;5256;48.728;9.140;2022-12-07T08:30:28;2.20;99.90
10419;DHT22;5256;48.728;9.140;2022-12-07T08:32:53;2.20;99.90
10419;DHT22;5256;48.728;9.140;2022-12-07T08:35:19;2.20;99.90
10419;DHT22;5256;48.728;9.140;2022-12-07T08:37:45;2.20;99.90
10419;DHT22;5256;48.728;9.140;2022-12-07T08:40:12;2.30;99.90
10419;DHT22;5256;48.728;9.140;2022-12-07T08:42:48;2.40;99.90
10419;DHT22;5256;48.728;9.140;2022-12-07T08:45:15;2.40;99.90
10419;DHT22;5256;48.728;9.140;2022-12-07T08:48:02;2.50;99.90
10419;DHT22;5256;48.728;9.140;2022-12-07T08:50:29;2.60;99.90
10419;DHT22;5256;48.728;9.140;2022-12-07T08:52:58;2.60;99.90
10419;DHT22;5256;48.728;9.140;2022-12-07T08:55:24;2.60;99.90
10419;DHT22;5256;48.728;9.140;2022-12-07T08:57:50;2.60;99.90
10419;DHT22;5256;48.728;9.140;2022-12-07T09:00:17;2.70;99.90
10419;DHT22;5256;48.728;9.140;2022-12-07T09:02:44;2.80;99.90
10419;DHT22;5256;48.728;9.140;2022-12-07T09:05:10;3.00;99.90
10419;DHT22;5256;48.728;9.140;2022-12-07T09:07:36;3.30;99.90
10419;DHT22;5256;48.728;9.140;2022-12-07T09:10:03;3.40;99.90
10419;DHT22;5256;48.728;9.140;2022-12-07T09:12:29;3.40;99.90
10419;DHT22;5256;48.728;9.140;2022-12-07T09:14:55;3.50;99.90
10419;DHT22;5256;48.728;9.140;2022-12-07T09:17:20;3.50;99.90
10419;DHT22;5256;48.728;9.140;2022-12-07T09:19:46;3.50;99.90
10419;DHT22;5256;48.728;9.140;2022-12-07T09:22:12;3.50;99.90
10419;DHT22;5256;48.728;9.140;2022-12-07T09:24:37;3.70;99.90
10419;DHT22;5256;48.728;9.140;2022-12-07T09:27:03;3.80;99.90
10419;DHT22;5256;48.728;9.140;2022-12-07T09:29:28;3.90;99.90
10419;DHT22;5256;48.728;9.140;2022-12-07T09:31:54;4.00;99.90
10419;DHT22;5256;48.728;9.140;2022-12-07T09:34:20;3.90;99.90
10419;DHT22;5256;48.728;9.140;2022-12-07T09:36:45;4.00;99.90
10419;DHT22;5256;48.728;9.140;2022-12-07T09:39:11;4.10;99.90
10419;DHT22;5256;48.728;9.140;2022-12-07T09:41:42;4.10;99.90
10419;DHT22;5256;48.728;9.140;2022-12-07T09:44:18;4.00;99.90
10419;DHT22;5256;48.728;9.140;2022-12-07T09:46:44;4.00;99.90
10419;DHT22;5256;48.728;9.140;2022-12-07T09:49:18;4.00;99.90
10419;DHT22;5256;48.728;9.140;2022-12-07T09:51:44;3.90;99.90
10419;DHT22;5256;48.728;9.140;2022-12-07T09:54:15;4.00;99.90
10419;DHT22;5256;48.728;9.140;2022-12-07T09:56:41;4.00;99.90
10419;DHT22;5256;48.728;9.140;2022-12-07T09:59:13;4.20;99.90
10419;DHT22;5256;48.728;9.140;2022-12-07T10:01:41;4.20;99.90
10419;DHT22;5256;48.728;9.140;2022-12-07T10:04:20;4.20;99.90
10419;DHT22;5256;48.728;9.140;2022-12-07T10:06:46;4.30;99.90
10419;DHT22;5256;48.728;9.140;2022-12-07T10:09:17;4.30;99.90
10419;DHT22;5256;48.728;9.140;2022-12-07T10:12:16;4.40;99.90
10419;DHT22;5256;48.728;9.140;2022-12-07T10:15:00;4.40;99.90
10419;DHT22;5256;48.728;9.140;2022-12-07T10:17:37;4.30;99.90
10419;DHT22;5256;48.728;9.140;2022-12-07T10:20:18;4.40;99.90
10419;DHT22;5256;48.728;9.140;2022-12-07T10:23:05;4.50;99.90
10419;DHT22;5256;48.728;9.140;2022-12-07T10:25:37;4.50;99.90
10419;DHT22;5256;48.728;9.140;2022-12-07T10:30:56;4.40;99.90
10419;DHT22;5256;48.728;9.140;2022-12-07T10:35:54;4.40;99.90
10419;DHT22;5256;48.728;9.140;2022-12-07T10:38:20;4.40;99.90
10419;DHT22;5256;48.728;9.140;2022-12-07T10:40:46;4.40;99.90
10419;DHT22;5256;48.728;9.140;2022-12-07T10:51:06;4.30;99.90
10419;DHT22;5256;48.728;9.140;2022-12-07T10:53:52;4.40;99.90
10419;DHT22;5256;48.728;9.140;2022-12-07T11:07:28;4.70;99.90
10419;DHT22;5256;48.728;9.140;2022-12-07T11:10:18;4.70;99.90
10419;DHT22;5256;48.728;9.140;2022-12-07T11:12:57;4.70;99.90
10419;DHT22;5256;48.728;9.140;2022-12-07T11:15:47;4.80;99.90
10419;DHT22;5256;48.728;9.140;2022-12-07T11:23:45;4.90;99.90
10419;DHT22;5256;48.728;9.140;2022-12-07T11:29:16;4.90;99.90
10419;DHT22;5256;48.728;9.140;2022-12-07T11:37:18;4.90;99.90
10419;DHT22;5256;48.728;9.140;2022-12-07T11:39:50;4.90;99.90
10419;DHT22;5256;48.728;9.140;2022-12-07T11:42:26;4.90;99.90
10419;DHT22;5256;48.728;9.140;2022-12-07T11:45:02;4.90;99.90
10419;DHT22;5256;48.728;9.140;2022-12-07T11:47:58;4.80;99.90
10419;DHT22;5256;48.728;9.140;2022-12-07T11:50:39;4.70;99.90
10419;DHT22;5256;48.728;9.140;2022-12-07T12:03:45;4.70;99.90
10419;DHT22;5256;48.728;9.140;2022-12-07T12:06:12;4.70;99.90
10419;DHT22;5256;48.728;9.140;2022-12-07T12:14:11;4.70;99.90
10419;DHT22;5256;48.728;9.140;2022-12-07T12:19:46;4.60;99.90
10419;DHT22;5256;48.728;9.140;2022-12-07T12:22:21;4.60;99.90
10419;DHT22;5256;48.728;9.140;2022-12-07T12:24:53;4.60;99.90
10419;DHT22;5256;48.728;9.140;2022-12-07T12:27:31;4.60;99.90
10419;DHT22;5256;48.728;9.140;2022-12-07T12:30:02;4.50;99.90
10419;DHT22;5256;48.728;9.140;2022-12-07T12:32:42;4.50;99.90
10419;DHT22;5256;48.728;9.140;2022-12-07T12:35:28;4.50;99.90
10419;DHT22;5256;48.728;9.140;2022-12-07T12:38:25;4.40;99.90
10419;DHT22;5256;48.728;9.140;2022-12-07T12:40:53;4.30;99.90
10419;DHT22;5256;48.728;9.140;2022-12-07T12:43:51;4.20;99.90
10419;DHT22;5256;48.728;9.140;2022-12-07T12:51:41;4.30;99.90
10419;DHT22;5256;48.728;9.140;2022-12-07T12:54:34;4.30;99.90
10419;DHT22;5256;48.728;9.140;2022-12-07T12:57:15;4.40;99.90
10419;DHT22;5256;48.728;9.140;2022-12-07T13:02:33;4.30;99.90
10419;DHT22;5256;48.728;9.140;2022-12-07T13:10:42;4.10;99.90
10419;DHT22;5256;48.728;9.140;2022-12-07T13:15:42;4.20;99.90
10419;DHT22;5256;48.728;9.140;2022-12-07T13:18:24;4.10;99.90
10419;DHT22;5256;48.728;9.140;2022-12-07T13:26:16;4.30;99.90
10419;DHT22;5256;48.728;9.140;2022-12-07T13:28:52;4.40;99.90
10419;DHT22;5256;48.728;9.140;2022-12-07T13:33:58;4.40;99.90
10419;DHT22;5256;48.728;9.140;2022-12-07T13:36:30;4.40;99.90
10419;DHT22;5256;48.728;9.140;2022-12-07T13:41:41;4.50;99.90
10419;DHT22;5256;48.728;9.140;2022-12-07T13:44:13;4.50;99.90
10419;DHT22;5256;48.728;9.140;2022-12-07T13:47:14;4.50;99.90
10419;DHT22;5256;48.728;9.140;2022-12-07T13:49:55;4.40;99.90
10419;DHT22;5256;48.728;9.140;2022-12-07T13:52:27;4.40;99.90
10419;DHT22;5256;48.728;9.140;2022-12-07T13:55:05;4.30;99.90
10419;DHT22;5256;48.728;9.140;2022-12-07T13:57:35;4.30;99.90
10419;DHT22;5256;48.728;9.140;2022-12-07T14:00:04;4.20;99.90
10419;DHT22;5256;48.728;9.140;2022-12-07T14:02:33;4.10;99.90
10419;DHT22;5256;48.728;9.140;2022-12-07T14:07:33;4.00;99.90
10419;DHT22;5256;48.728;9.140;2022-12-07T14:10:01;4.00;99.90
10419;DHT22;5256;48.728;9.140;2022-12-07T14:12:29;4.00;99.90
10419;DHT22;5256;48.728;9.140;2022-12-07T14:14:56;4.00;99.90
10419;DHT22;5256;48.728;9.140;2022-12-07T14:17:24;4.00;99.90
10419;DHT22;5256;48.728;9.140;2022-12-07T14:19:52;3.90;99.90
10419;DHT22;5256;48.728;9.140;2022-12-07T14:22:22;3.90;99.90
10419;DHT22;5256;48.728;9.140;2022-12-07T14:24:48;3.90;99.90
10419;DHT22;5256;48.728;9.140;2022-12-07T14:27:22;3.90;99.90
10419;DHT22;5256;48.728;9.140;2022-12-07T14:29:48;3.90;99.90
10419;DHT22;5256;48.728;9.140;2022-12-07T14:32:24;3.90;99.90
10419;DHT22;5256;48.728;9.140;2022-12-07T14:34:57;3.90;99.90
10419;DHT22;5256;48.728;9.140;2022-12-07T14:37:24;3.90;99.90
10419;DHT22;5256;48.728;9.140;2022-12-07T14:39:49;3.90;99.90
10419;DHT22;5256;48.728;9.140;2022-12-07T14:42:15;3.80;99.90
10419;DHT22;5256;48.728;9.140;2022-12-07T14:44:40;3.80;99.90
10419;DHT22;5256;48.728;9.140;2022-12-07T14:47:11;3.80;99.90
10419;DHT22;5256;48.728;9.140;2022-12-07T14:49:37;3.80;99.90
10419;DHT22;5256;48.728;9.140;2022-12-07T14:52:03;3.70;99.90
10419;DHT22;5256;48.728;9.140;2022-12-07T14:54:31;3.70;99.90
10419;DHT22;5256;48.728;9.140;2022-12-07T14:56:57;3.70;99.90
10419;DHT22;5256;48.728;9.140;2022-12-07T14:59:22;3.70;99.90
10419;DHT22;5256;48.728;9.140;2022-12-07T15:01:48;3.70;99.90
10419;DHT22;5256;48.728;9.140;2022-12-07T15:04:16;3.70;99.90
10419;DHT22;5256;48.728;9.140;2022-12-07T15:06:41;3.60;99.90
10419;DHT22;5256;48.728;9.140;2022-12-07T15:09:10;3.60;99.90
10419;DHT22;5256;48.728;9.140;2022-12-07T15:11:36;3.60;99.90
10419;DHT22;5256;48.728;9.140;2022-12-07T15:14:01;3.50;99.90
10419;DHT22;5256;48.728;9.140;2022-12-07T15:16:33;3.60;99.90
10419;DHT22;5256;48.728;9.140;2022-12-07T15:18:59;3.60;99.90
10419;DHT22;5256;48.728;9.140;2022-12-07T15:21:25;3.50;99.90
10419;DHT22;5256;48.728;9.140;2022-12-07T15:23:50;3.60;99.90
10419;DHT22;5256;48.728;9.140;2022-12-07T15:26:17;3.60;99.90
10419;DHT22;5256;48.728;9.140;2022-12-07T15:28:42;3.60;99.90
10419;DHT22;5256;48.728;9.140;2022-12-07T15:31:13;3.50;99.90
10419;DHT22;5256;48.728;9.140;2022-12-07T15:33:39;3.50;99.90
10419;DHT22;5256;48.728;9.140;2022-12-07T15:36:05;3.40;99.90
10419;DHT22;5256;48.728;9.140;2022-12-07T15:38:31;3.40;99.90
10419;DHT22;5256;48.728;9.140;2022-12-07T15:40:56;3.40;99.90
10419;DHT22;5256;48.728;9.140;2022-12-07T15:43:22;3.30;99.90
10419;DHT22;5256;48.728;9.140;2022-12-07T15:46:06;3.20;99.90
10419;DHT22;5256;48.728;9.140;2022-12-07T15:48:32;3.20;99.90
10419;DHT22;5256;48.728;9.140;2022-12-07T15:51:05;3.10;99.90
10419;DHT22;5256;48.728;9.140;2022-12-07T15:53:31;3.10;99.90
10419;DHT22;5256;48.728;9.140;2022-12-07T15:55:56;3.00;99.90
10419;DHT22;5256;48.728;9.140;2022-12-07T15:58:22;2.90;99.90
10419;DHT22;5256;48.728;9.140;2022-12-07T16:00:47;2.90;99.90
10419;DHT22;5256;48.728;9.140;2022-12-07T16:03:14;2.90;99.90
10419;DHT22;5256;48.728;9.140;2022-12-07T16:05:39;2.90;99.90
10419;DHT22;5256;48.728;9.140;2022-12-07T16:08:05;2.80;99.90
10419;DHT22;5256;48.728;9.140;2022-12-07T16:10:30;2.80;99.90
10419;DHT22;5256;48.728;9.140;2022-12-07T16:12:56;2.70;99.90
10419;DHT22;5256;48.728;9.140;2022-12-07T16:15:21;2.70;99.90
10419;DHT22;5256;48.728;9.140;2022-12-07T16:17:50;2.70;99.90
10419;DHT22;5256;48.728;9.140;2022-12-07T16:20:16;2.70;99.90
10419;DHT22;5256;48.728;9.140;2022-12-07T16:22:41;2.70;99.90
10419;DHT22;5256;48.728;9.140;2022-12-07T16:25:07;2.70;99.90
10419;DHT22;5256;48.728;9.140;2022-12-07T16:27:33;2.60;99.90
10419;DHT22;5256;48.728;9.140;2022-12-07T16:29:59;2.60;99.90
10419;DHT22;5256;48.728;9.140;2022-12-07T16:32:24;2.60;99.90
10419;DHT22;5256;48.728;9.140;2022-12-07T16:34:50;2.60;99.90
10419;DHT22;5256;48.728;9.140;2022-12-07T16:37:15;2.60;99.90
10419;DHT22;5256;48.728;9.140;2022-12-07T16:39:41;2.60;99.90
10419;DHT22;5256;48.728;9.140;2022-12-07T16:42:06;2.50;99.90
10419;DHT22;5256;48.728;9.140;2022-12-07T16:44:32;2.40;99.90
10419;DHT22;5256;48.728;9.140;2022-12-07T16:46:58;2.40;99.90
10419;DHT22;5256;48.728;9.140;2022-12-07T16:49:24;2.40;99.90
10419;DHT22;5256;48.728;9.140;2022-12-07T16:51:50;2.30;99.90
10419;DHT22;5256;48.728;9.140;2022-12-07T16:54:16;2.20;99.90
10419;DHT22;5256;48.728;9.140;2022-12-07T16:56:41;2.20;99.90
10419;DHT22;5256;48.728;9.140;2022-12-07T16:59:07;2.20;99.90
10419;DHT22;5256;48.728;9.140;2022-12-07T17:01:33;2.30;99.90
10419;DHT22;5256;48.728;9.140;2022-12-07T17:03:59;2.30;99.90
10419;DHT22;5256;48.728;9.140;2022-12-07T17:06:27;2.20;99.90
10419;DHT22;5256;48.728;9.140;2022-12-07T17:08:53;2.20;99.90
10419;DHT22;5256;48.728;9.140;2022-12-07T17:11:24;2.10;99.90
10419;DHT22;5256;48.728;9.140;2022-12-07T17:13:51;2.10;99.90
10419;DHT22;5256;48.728;9.140;2022-12-07T17:16:35;2.10;99.90
10419;DHT22;5256;48.728;9.140;2022-12-07T17:19:04;2.10;99.90
10419;DHT22;5256;48.728;9.140;2022-12-07T17:21:31;2.10;99.90
10419;DHT22;5256;48.728;9.140;2022-12-07T17:23:59;2.10;99.90
10419;DHT22;5256;48.728;9.140;2022-12-07T17:26:26;2.00;99.90
10419;DHT22;5256;48.728;9.140;2022-12-07T17:28:53;2.10;99.90
10419;DHT22;5256;48.728;9.140;2022-12-07T17:31:20;2.10;99.90
10419;DHT22;5256;48.728;9.140;2022-12-07T17:33:46;2.10;99.90
10419;DHT22;5256;48.728;9.140;2022-12-07T17:36:15;2.10;99.90
10419;DHT22;5256;48.728;9.140;2022-12-07T17:38:41;2.10;99.90
10419;DHT22;5256;48.728;9.140;2022-12-07T17:41:12;2.10;99.90
10419;DHT22;5256;48.728;9.140;2022-12-07T17:43:58;2.10;99.90
10419;DHT22;5256;48.728;9.140;2022-12-07T17:46:23;2.20;99.90
10419;DHT22;5256;48.728;9.140;2022-12-07T17:48:49;2.10;99.90
10419;DHT22;5256;48.728;9.140;2022-12-07T17:51:14;2.10;99.90
10419;DHT22;5256;48.728;9.140;2022-12-07T17:53:58;2.20;99.90
10419;DHT22;5256;48.728;9.140;2022-12-07T17:56:25;2.20;99.90
10419;DHT22;5256;48.728;9.140;2022-12-07T17:58:50;2.20;99.90
10419;DHT22;5256;48.728;9.140;2022-12-07T18:01:16;2.20;99.90
10419;DHT22;5256;48.728;9.140;2022-12-07T18:03:41;2.20;99.90
10419;DHT22;5256;48.728;9.140;2022-12-07T18:06:07;2.30;99.90
10419;DHT22;5256;48.728;9.140;2022-12-07T18:08:35;2.30;99.90
10419;DHT22;5256;48.728;9.140;2022-12-07T18:11:04;2.20;99.90
10419;DHT22;5256;48.728;9.140;2022-12-07T18:13:30;2.30;99.90
10419;DHT22;5256;48.728;9.140;2022-12-07T18:16:29;2.30;99.90
10419;DHT22;5256;48.728;9.140;2022-12-07T18:18:59;2.30;99.90